sensor_id;sensor_type;location;lat;lon;timestamp;P1;durP1;ratioP1;P2;durP2;ratioP2
72113;SDS011;59989;46.220;19.888;2022-07-10T00:00:42;6.85;;;1.60;;
72113;SDS011;59989;46.220;19.888;2022-07-10T00:03:44;6.30;;;1.40;;
72113;SDS011;59989;46.220;19.888;2022-07-10T00:06:47;5.78;;;1.75;;
72113;SDS011;59989;46.220;19.888;2022-07-10T00:09:49;7.07;;;1.77;;
72113;SDS011;59989;46.220;19.888;2022-07-10T00:12:52;6.22;;;1.45;;
72113;SDS011;59989;46.220;19.888;2022-07-10T00:15:54;10.02;;;1.80;;
72113;SDS011;59989;46.220;19.888;2022-07-10T00:18:57;8.03;;;1.73;;
72113;SDS011;59989;46.220;19.888;2022-07-10T00:21:59;6.65;;;1.40;;
72113;SDS011;59989;46.220;19.888;2022-07-10T00:25:02;6.50;;;1.52;;
72113;SDS011;59989;46.220;19.888;2022-07-10T00:28:05;7.25;;;1.83;;
72113;SDS011;59989;46.220;19.888;2022-07-10T00:31:08;6.45;;;1.98;;
72113;SDS011;59989;46.220;19.888;2022-07-10T00:34:12;8.90;;;2.03;;
72113;SDS011;59989;46.220;19.888;2022-07-10T00:37:15;7.28;;;1.80;;
72113;SDS011;59989;46.220;19.888;2022-07-10T00:40:18;5.97;;;1.42;;
72113;SDS011;59989;46.220;19.888;2022-07-10T00:43:20;7.55;;;1.60;;
72113;SDS011;59989;46.220;19.888;2022-07-10T00:46:23;9.32;;;1.90;;
72113;SDS011;59989;46.220;19.888;2022-07-10T00:49:29;7.73;;;1.70;;
72113;SDS011;59989;46.220;19.888;2022-07-10T00:52:31;9.27;;;1.60;;
72113;SDS011;59989;46.220;19.888;2022-07-10T00:55:37;7.70;;;1.65;;
72113;SDS011;59989;46.220;19.888;2022-07-10T00:58:41;10.63;;;1.50;;
72113;SDS011;59989;46.220;19.888;2022-07-10T01:01:44;5.90;;;1.77;;
72113;SDS011;59989;46.220;19.888;2022-07-10T01:04:47;8.60;;;1.73;;
72113;SDS011;59989;46.220;19.888;2022-07-10T01:07:49;8.73;;;1.70;;
72113;SDS011;59989;46.220;19.888;2022-07-10T01:10:53;6.60;;;1.70;;
72113;SDS011;59989;46.220;19.888;2022-07-10T01:13:55;7.45;;;1.60;;
72113;SDS011;59989;46.220;19.888;2022-07-10T01:16:58;8.35;;;1.73;;
72113;SDS011;59989;46.220;19.888;2022-07-10T01:20:05;6.57;;;1.53;;
72113;SDS011;59989;46.220;19.888;2022-07-10T01:23:11;6.70;;;1.75;;
72113;SDS011;59989;46.220;19.888;2022-07-10T01:26:13;6.68;;;1.80;;
72113;SDS011;59989;46.220;19.888;2022-07-10T01:29:16;6.63;;;1.90;;
72113;SDS011;59989;46.220;19.888;2022-07-10T01:32:18;7.22;;;2.17;;
72113;SDS011;59989;46.220;19.888;2022-07-10T01:35:21;10.33;;;2.70;;
72113;SDS011;59989;46.220;19.888;2022-07-10T01:38:24;7.25;;;1.83;;
72113;SDS011;59989;46.220;19.888;2022-07-10T01:41:26;7.28;;;1.90;;
72113;SDS011;59989;46.220;19.888;2022-07-10T01:44:29;7.90;;;1.90;;
72113;SDS011;59989;46.220;19.888;2022-07-10T01:47:31;7.13;;;1.88;;
72113;SDS011;59989;46.220;19.888;2022-07-10T01:50:34;8.43;;;1.97;;
72113;SDS011;59989;46.220;19.888;2022-07-10T01:53:37;8.10;;;1.90;;
72113;SDS011;59989;46.220;19.888;2022-07-10T01:56:40;6.50;;;1.92;;
72113;SDS011;59989;46.220;19.888;2022-07-10T01:59:43;9.93;;;1.92;;
72113;SDS011;59989;46.220;19.888;2022-07-10T02:02:45;11.07;;;2.10;;
72113;SDS011;59989;46.220;19.888;2022-07-10T02:06:08;6.30;;;1.93;;
72113;SDS011;59989;46.220;19.888;2022-07-10T02:09:11;6.30;;;1.80;;
72113;SDS011;59989;46.220;19.888;2022-07-10T02:12:15;7.95;;;1.92;;
72113;SDS011;59989;46.220;19.888;2022-07-10T02:15:18;10.38;;;2.30;;
72113;SDS011;59989;46.220;19.888;2022-07-10T02:18:20;9.77;;;2.22;;
72113;SDS011;59989;46.220;19.888;2022-07-10T02:21:25;7.20;;;2.00;;
72113;SDS011;59989;46.220;19.888;2022-07-10T02:24:27;8.48;;;1.80;;
72113;SDS011;59989;46.220;19.888;2022-07-10T02:27:30;6.10;;;2.10;;
72113;SDS011;59989;46.220;19.888;2022-07-10T02:30:32;7.63;;;2.13;;
72113;SDS011;59989;46.220;19.888;2022-07-10T02:33:34;8.27;;;2.03;;
72113;SDS011;59989;46.220;19.888;2022-07-10T02:36:38;8.40;;;2.70;;
72113;SDS011;59989;46.220;19.888;2022-07-10T02:39:41;7.75;;;2.42;;
72113;SDS011;59989;46.220;19.888;2022-07-10T02:42:43;8.93;;;2.65;;
72113;SDS011;59989;46.220;19.888;2022-07-10T02:45:46;6.88;;;2.50;;
72113;SDS011;59989;46.220;19.888;2022-07-10T02:48:49;7.72;;;2.40;;
72113;SDS011;59989;46.220;19.888;2022-07-10T02:51:51;7.90;;;2.60;;
72113;SDS011;59989;46.220;19.888;2022-07-10T02:54:54;7.03;;;2.70;;
72113;SDS011;59989;46.220;19.888;2022-07-10T02:57:58;7.75;;;2.58;;
72113;SDS011;59989;46.220;19.888;2022-07-10T03:01:02;8.45;;;2.80;;
72113;SDS011;59989;46.220;19.888;2022-07-10T03:04:05;7.90;;;3.28;;
72113;SDS011;59989;46.220;19.888;2022-07-10T03:07:07;9.20;;;2.70;;
72113;SDS011;59989;46.220;19.888;2022-07-10T03:10:10;6.95;;;2.20;;
72113;SDS011;59989;46.220;19.888;2022-07-10T03:13:12;7.25;;;2.45;;
72113;SDS011;59989;46.220;19.888;2022-07-10T03:16:14;7.55;;;2.60;;
72113;SDS011;59989;46.220;19.888;2022-07-10T03:19:17;10.38;;;3.15;;
72113;SDS011;59989;46.220;19.888;2022-07-10T03:22:20;8.83;;;2.67;;
72113;SDS011;59989;46.220;19.888;2022-07-10T03:25:22;7.70;;;2.35;;
72113;SDS011;59989;46.220;19.888;2022-07-10T03:28:25;6.97;;;2.70;;
72113;SDS011;59989;46.220;19.888;2022-07-10T03:31:27;7.53;;;2.30;;
72113;SDS011;59989;46.220;19.888;2022-07-10T03:34:30;7.05;;;2.60;;
72113;SDS011;59989;46.220;19.888;2022-07-10T03:37:34;8.00;;;2.40;;
72113;SDS011;59989;46.220;19.888;2022-07-10T03:40:37;8.65;;;2.63;;
72113;SDS011;59989;46.220;19.888;2022-07-10T03:43:39;6.57;;;2.20;;
72113;SDS011;59989;46.220;19.888;2022-07-10T03:46:42;6.65;;;1.98;;
72113;SDS011;59989;46.220;19.888;2022-07-10T03:49:44;7.60;;;2.17;;
72113;SDS011;59989;46.220;19.888;2022-07-10T03:52:46;6.73;;;2.07;;
72113;SDS011;59989;46.220;19.888;2022-07-10T03:55:49;7.07;;;1.77;;
72113;SDS011;59989;46.220;19.888;2022-07-10T03:58:51;7.93;;;1.80;;
72113;SDS011;59989;46.220;19.888;2022-07-10T04:01:54;8.55;;;1.70;;
72113;SDS011;59989;46.220;19.888;2022-07-10T04:04:56;7.70;;;1.60;;
72113;SDS011;59989;46.220;19.888;2022-07-10T04:07:59;5.83;;;1.50;;
72113;SDS011;59989;46.220;19.888;2022-07-10T04:11:02;5.93;;;1.48;;
72113;SDS011;59989;46.220;19.888;2022-07-10T04:14:05;7.18;;;1.40;;
72113;SDS011;59989;46.220;19.888;2022-07-10T04:17:07;4.95;;;1.30;;
72113;SDS011;59989;46.220;19.888;2022-07-10T04:20:10;4.68;;;1.20;;
72113;SDS011;59989;46.220;19.888;2022-07-10T04:23:13;5.23;;;1.13;;
72113;SDS011;59989;46.220;19.888;2022-07-10T04:26:16;5.55;;;1.40;;
72113;SDS011;59989;46.220;19.888;2022-07-10T04:29:18;8.55;;;1.80;;
72113;SDS011;59989;46.220;19.888;2022-07-10T04:32:21;5.32;;;1.27;;
72113;SDS011;59989;46.220;19.888;2022-07-10T04:35:23;6.15;;;1.40;;
72113;SDS011;59989;46.220;19.888;2022-07-10T04:38:26;5.63;;;1.10;;
72113;SDS011;59989;46.220;19.888;2022-07-10T04:41:28;5.05;;;1.23;;
72113;SDS011;59989;46.220;19.888;2022-07-10T04:44:32;4.40;;;1.20;;
72113;SDS011;59989;46.220;19.888;2022-07-10T04:47:35;7.97;;;1.05;;
72113;SDS011;59989;46.220;19.888;2022-07-10T04:50:37;6.18;;;1.30;;
72113;SDS011;59989;46.220;19.888;2022-07-10T04:53:40;5.63;;;1.10;;
72113;SDS011;59989;46.220;19.888;2022-07-10T04:56:42;4.28;;;1.00;;
72113;SDS011;59989;46.220;19.888;2022-07-10T04:59:46;3.75;;;0.90;;
72113;SDS011;59989;46.220;19.888;2022-07-10T05:02:48;4.88;;;1.15;;
72113;SDS011;59989;46.220;19.888;2022-07-10T05:05:51;5.13;;;1.10;;
72113;SDS011;59989;46.220;19.888;2022-07-10T05:08:53;4.60;;;0.90;;
72113;SDS011;59989;46.220;19.888;2022-07-10T05:11:57;5.65;;;1.15;;
72113;SDS011;59989;46.220;19.888;2022-07-10T05:14:59;5.22;;;1.23;;
72113;SDS011;59989;46.220;19.888;2022-07-10T05:18:02;4.68;;;1.00;;
72113;SDS011;59989;46.220;19.888;2022-07-10T05:21:05;4.72;;;1.17;;
72113;SDS011;59989;46.220;19.888;2022-07-10T05:24:08;5.00;;;1.00;;
72113;SDS011;59989;46.220;19.888;2022-07-10T05:27:10;5.20;;;1.10;;
72113;SDS011;59989;46.220;19.888;2022-07-10T05:30:13;5.13;;;1.10;;
72113;SDS011;59989;46.220;19.888;2022-07-10T05:33:15;4.97;;;0.90;;
72113;SDS011;59989;46.220;19.888;2022-07-10T05:36:18;4.32;;;1.00;;
72113;SDS011;59989;46.220;19.888;2022-07-10T05:39:20;4.60;;;1.10;;
72113;SDS011;59989;46.220;19.888;2022-07-10T05:42:24;3.67;;;0.93;;
72113;SDS011;59989;46.220;19.888;2022-07-10T05:45:27;4.80;;;1.20;;
72113;SDS011;59989;46.220;19.888;2022-07-10T05:48:29;5.05;;;1.10;;
72113;SDS011;59989;46.220;19.888;2022-07-10T05:51:32;4.57;;;1.08;;
72113;SDS011;59989;46.220;19.888;2022-07-10T05:54:45;3.97;;;0.90;;
72113;SDS011;59989;46.220;19.888;2022-07-10T05:57:48;4.63;;;1.10;;
72113;SDS011;59989;46.220;19.888;2022-07-10T06:00:50;7.47;;;1.20;;
72113;SDS011;59989;46.220;19.888;2022-07-10T06:03:53;4.10;;;1.00;;
72113;SDS011;59989;46.220;19.888;2022-07-10T06:06:55;5.28;;;1.15;;
72113;SDS011;59989;46.220;19.888;2022-07-10T06:09:57;4.87;;;1.20;;
72113;SDS011;59989;46.220;19.888;2022-07-10T06:13:00;4.15;;;0.90;;
72113;SDS011;59989;46.220;19.888;2022-07-10T06:16:02;6.47;;;1.10;;
72113;SDS011;59989;46.220;19.888;2022-07-10T06:19:06;4.80;;;1.20;;
72113;SDS011;59989;46.220;19.888;2022-07-10T06:22:09;4.22;;;1.05;;
72113;SDS011;59989;46.220;19.888;2022-07-10T06:25:30;4.30;;;1.10;;
72113;SDS011;59989;46.220;19.888;2022-07-10T06:28:35;4.13;;;1.10;;
72113;SDS011;59989;46.220;19.888;2022-07-10T06:31:38;7.57;;;1.50;;
72113;SDS011;59989;46.220;19.888;2022-07-10T06:34:41;5.55;;;1.08;;
72113;SDS011;59989;46.220;19.888;2022-07-10T06:37:43;5.15;;;1.10;;
72113;SDS011;59989;46.220;19.888;2022-07-10T06:40:45;4.37;;;1.10;;
72113;SDS011;59989;46.220;19.888;2022-07-10T06:43:49;5.38;;;1.17;;
72113;SDS011;59989;46.220;19.888;2022-07-10T06:46:51;4.10;;;1.00;;
72113;SDS011;59989;46.220;19.888;2022-07-10T06:50:12;4.82;;;1.27;;
72113;SDS011;59989;46.220;19.888;2022-07-10T06:53:15;4.82;;;1.25;;
72113;SDS011;59989;46.220;19.888;2022-07-10T06:56:17;4.57;;;1.10;;
72113;SDS011;59989;46.220;19.888;2022-07-10T06:59:21;5.70;;;1.10;;
72113;SDS011;59989;46.220;19.888;2022-07-10T07:02:24;5.20;;;1.20;;
72113;SDS011;59989;46.220;19.888;2022-07-10T07:05:26;4.15;;;1.10;;
72113;SDS011;59989;46.220;19.888;2022-07-10T07:08:29;5.47;;;1.30;;
72113;SDS011;59989;46.220;19.888;2022-07-10T07:11:32;6.90;;;1.20;;
72113;SDS011;59989;46.220;19.888;2022-07-10T07:14:34;6.00;;;1.13;;
72113;SDS011;59989;46.220;19.888;2022-07-10T07:17:45;5.82;;;1.75;;
72113;SDS011;59989;46.220;19.888;2022-07-10T07:21:10;7.53;;;1.60;;
72113;SDS011;59989;46.220;19.888;2022-07-10T07:24:31;6.50;;;1.20;;
72113;SDS011;59989;46.220;19.888;2022-07-10T07:27:33;5.60;;;1.20;;
72113;SDS011;59989;46.220;19.888;2022-07-10T07:30:37;5.40;;;1.10;;
72113;SDS011;59989;46.220;19.888;2022-07-10T07:33:40;6.28;;;1.33;;
72113;SDS011;59989;46.220;19.888;2022-07-10T07:36:42;5.20;;;1.50;;
72113;SDS011;59989;46.220;19.888;2022-07-10T07:39:45;5.75;;;1.48;;
72113;SDS011;59989;46.220;19.888;2022-07-10T07:42:47;5.27;;;1.37;;
72113;SDS011;59989;46.220;19.888;2022-07-10T07:45:53;5.22;;;1.50;;
72113;SDS011;59989;46.220;19.888;2022-07-10T07:48:56;6.30;;;1.50;;
72113;SDS011;59989;46.220;19.888;2022-07-10T07:51:59;4.47;;;1.30;;
72113;SDS011;59989;46.220;19.888;2022-07-10T07:55:02;7.75;;;1.30;;
72113;SDS011;59989;46.220;19.888;2022-07-10T07:58:05;5.37;;;1.53;;
72113;SDS011;59989;46.220;19.888;2022-07-10T08:01:07;4.55;;;1.33;;
72113;SDS011;59989;46.220;19.888;2022-07-10T08:04:10;5.63;;;1.48;;
72113;SDS011;59989;46.220;19.888;2022-07-10T08:07:12;6.82;;;1.75;;
72113;SDS011;59989;46.220;19.888;2022-07-10T08:10:16;5.30;;;1.50;;
72113;SDS011;59989;46.220;19.888;2022-07-10T08:13:21;6.27;;;1.40;;
72113;SDS011;59989;46.220;19.888;2022-07-10T08:16:24;4.65;;;1.30;;
72113;SDS011;59989;46.220;19.888;2022-07-10T08:19:27;5.50;;;1.30;;
72113;SDS011;59989;46.220;19.888;2022-07-10T08:22:30;5.05;;;1.30;;
72113;SDS011;59989;46.220;19.888;2022-07-10T08:25:32;4.50;;;1.30;;
72113;SDS011;59989;46.220;19.888;2022-07-10T08:28:35;4.93;;;1.20;;
72113;SDS011;59989;46.220;19.888;2022-07-10T08:31:38;4.35;;;1.20;;
72113;SDS011;59989;46.220;19.888;2022-07-10T08:34:41;5.28;;;1.40;;
72113;SDS011;59989;46.220;19.888;2022-07-10T08:37:44;4.78;;;1.10;;
72113;SDS011;59989;46.220;19.888;2022-07-10T08:40:47;5.13;;;1.50;;
72113;SDS011;59989;46.220;19.888;2022-07-10T08:43:52;3.90;;;1.03;;
72113;SDS011;59989;46.220;19.888;2022-07-10T08:46:54;5.72;;;1.10;;
72113;SDS011;59989;46.220;19.888;2022-07-10T08:49:58;5.10;;;1.25;;
72113;SDS011;59989;46.220;19.888;2022-07-10T08:53:03;3.95;;;1.02;;
72113;SDS011;59989;46.220;19.888;2022-07-10T08:56:10;6.53;;;1.15;;
72113;SDS011;59989;46.220;19.888;2022-07-10T08:59:14;5.23;;;1.00;;
72113;SDS011;59989;46.220;19.888;2022-07-10T09:02:16;4.63;;;1.00;;
72113;SDS011;59989;46.220;19.888;2022-07-10T09:05:19;4.68;;;1.15;;
72113;SDS011;59989;46.220;19.888;2022-07-10T09:11:30;5.47;;;1.00;;
72113;SDS011;59989;46.220;19.888;2022-07-10T09:14:33;3.70;;;0.90;;
72113;SDS011;59989;46.220;19.888;2022-07-10T09:17:49;4.95;;;0.98;;
72113;SDS011;59989;46.220;19.888;2022-07-10T09:20:53;4.05;;;0.70;;
72113;SDS011;59989;46.220;19.888;2022-07-10T09:23:58;5.35;;;1.15;;
72113;SDS011;59989;46.220;19.888;2022-07-10T09:27:02;5.43;;;1.33;;
72113;SDS011;59989;46.220;19.888;2022-07-10T09:30:07;5.57;;;1.07;;
72113;SDS011;59989;46.220;19.888;2022-07-10T09:33:14;5.03;;;1.20;;
72113;SDS011;59989;46.220;19.888;2022-07-10T09:36:29;4.05;;;1.10;;
72113;SDS011;59989;46.220;19.888;2022-07-10T09:39:37;4.78;;;1.00;;
72113;SDS011;59989;46.220;19.888;2022-07-10T09:43:11;5.55;;;1.65;;
72113;SDS011;59989;46.220;19.888;2022-07-10T09:46:17;4.07;;;1.00;;
72113;SDS011;59989;46.220;19.888;2022-07-10T09:49:21;3.85;;;1.08;;
72113;SDS011;59989;46.220;19.888;2022-07-10T09:52:32;4.15;;;1.20;;
72113;SDS011;59989;46.220;19.888;2022-07-10T09:55:36;3.95;;;1.00;;
72113;SDS011;59989;46.220;19.888;2022-07-10T09:58:39;4.80;;;1.20;;
72113;SDS011;59989;46.220;19.888;2022-07-10T10:04:53;4.75;;;1.20;;
72113;SDS011;59989;46.220;19.888;2022-07-10T10:07:55;4.20;;;1.20;;
72113;SDS011;59989;46.220;19.888;2022-07-10T10:11:00;6.75;;;1.17;;
72113;SDS011;59989;46.220;19.888;2022-07-10T10:14:03;3.85;;;1.08;;
72113;SDS011;59989;46.220;19.888;2022-07-10T10:17:09;5.03;;;1.40;;
72113;SDS011;59989;46.220;19.888;2022-07-10T10:20:14;6.35;;;1.20;;
72113;SDS011;59989;46.220;19.888;2022-07-10T10:23:35;6.82;;;1.20;;
72113;SDS011;59989;46.220;19.888;2022-07-10T10:26:38;5.10;;;1.10;;
72113;SDS011;59989;46.220;19.888;2022-07-10T10:29:42;6.85;;;1.30;;
72113;SDS011;59989;46.220;19.888;2022-07-10T10:32:45;3.97;;;1.20;;
72113;SDS011;59989;46.220;19.888;2022-07-10T10:35:47;5.10;;;1.40;;
72113;SDS011;59989;46.220;19.888;2022-07-10T10:41:53;5.75;;;1.58;;
72113;SDS011;59989;46.220;19.888;2022-07-10T10:48:28;5.63;;;1.60;;
72113;SDS011;59989;46.220;19.888;2022-07-10T10:55:02;5.60;;;1.20;;
72113;SDS011;59989;46.220;19.888;2022-07-10T10:58:14;7.38;;;1.50;;
72113;SDS011;59989;46.220;19.888;2022-07-10T11:04:22;5.60;;;1.37;;
72113;SDS011;59989;46.220;19.888;2022-07-10T11:14:45;6.18;;;1.40;;
72113;SDS011;59989;46.220;19.888;2022-07-10T11:17:50;4.50;;;1.23;;
72113;SDS011;59989;46.220;19.888;2022-07-10T11:20:52;4.97;;;1.30;;
72113;SDS011;59989;46.220;19.888;2022-07-10T11:30:44;8.80;;;1.30;;
72113;SDS011;59989;46.220;19.888;2022-07-10T11:33:54;4.20;;;1.20;;
72113;SDS011;59989;46.220;19.888;2022-07-10T11:36:57;6.00;;;1.33;;
72113;SDS011;59989;46.220;19.888;2022-07-10T11:40:12;4.47;;;1.05;;
72113;SDS011;59989;46.220;19.888;2022-07-10T11:43:15;6.45;;;1.40;;
72113;SDS011;59989;46.220;19.888;2022-07-10T11:46:20;4.75;;;1.40;;
72113;SDS011;59989;46.220;19.888;2022-07-10T11:49:23;4.55;;;1.40;;
72113;SDS011;59989;46.220;19.888;2022-07-10T11:52:34;5.93;;;1.33;;
72113;SDS011;59989;46.220;19.888;2022-07-10T11:55:38;6.88;;;1.20;;
72113;SDS011;59989;46.220;19.888;2022-07-10T11:58:42;5.80;;;1.63;;
72113;SDS011;59989;46.220;19.888;2022-07-10T12:01:49;5.28;;;1.23;;
72113;SDS011;59989;46.220;19.888;2022-07-10T12:04:53;4.97;;;1.40;;
72113;SDS011;59989;46.220;19.888;2022-07-10T12:07:55;5.27;;;1.40;;
72113;SDS011;59989;46.220;19.888;2022-07-10T12:10:58;5.30;;;1.70;;
72113;SDS011;59989;46.220;19.888;2022-07-10T12:17:20;7.40;;;1.50;;
72113;SDS011;59989;46.220;19.888;2022-07-10T12:20:22;7.13;;;1.33;;
72113;SDS011;59989;46.220;19.888;2022-07-10T12:23:25;5.77;;;1.20;;
72113;SDS011;59989;46.220;19.888;2022-07-10T12:26:34;9.18;;;1.20;;
72113;SDS011;59989;46.220;19.888;2022-07-10T12:29:38;6.63;;;1.35;;
72113;SDS011;59989;46.220;19.888;2022-07-10T12:32:41;7.13;;;1.20;;
72113;SDS011;59989;46.220;19.888;2022-07-10T12:35:53;6.45;;;1.10;;
72113;SDS011;59989;46.220;19.888;2022-07-10T12:38:58;3.60;;;0.90;;
72113;SDS011;59989;46.220;19.888;2022-07-10T12:42:01;5.93;;;1.10;;
72113;SDS011;59989;46.220;19.888;2022-07-10T12:45:12;9.38;;;0.95;;
72113;SDS011;59989;46.220;19.888;2022-07-10T12:48:21;5.47;;;1.02;;
72113;SDS011;59989;46.220;19.888;2022-07-10T12:51:28;5.85;;;1.30;;
72113;SDS011;59989;46.220;19.888;2022-07-10T12:58:36;4.85;;;0.90;;
72113;SDS011;59989;46.220;19.888;2022-07-10T13:01:43;5.60;;;1.60;;
72113;SDS011;59989;46.220;19.888;2022-07-10T13:04:53;4.78;;;1.73;;
72113;SDS011;59989;46.220;19.888;2022-07-10T13:11:17;8.40;;;1.70;;
72113;SDS011;59989;46.220;19.888;2022-07-10T13:14:19;7.20;;;1.63;;
72113;SDS011;59989;46.220;19.888;2022-07-10T13:17:22;8.07;;;1.80;;
72113;SDS011;59989;46.220;19.888;2022-07-10T13:20:27;6.28;;;1.92;;
72113;SDS011;59989;46.220;19.888;2022-07-10T13:23:29;6.43;;;1.90;;
72113;SDS011;59989;46.220;19.888;2022-07-10T13:26:32;7.77;;;2.10;;
72113;SDS011;59989;46.220;19.888;2022-07-10T13:29:35;15.77;;;1.90;;
72113;SDS011;59989;46.220;19.888;2022-07-10T13:32:37;7.72;;;1.73;;
72113;SDS011;59989;46.220;19.888;2022-07-10T13:35:40;10.00;;;1.30;;
72113;SDS011;59989;46.220;19.888;2022-07-10T13:38:43;9.00;;;1.70;;
72113;SDS011;59989;46.220;19.888;2022-07-10T13:41:46;8.60;;;2.10;;
72113;SDS011;59989;46.220;19.888;2022-07-10T13:44:48;9.23;;;1.40;;
72113;SDS011;59989;46.220;19.888;2022-07-10T13:47:51;4.90;;;1.58;;
72113;SDS011;59989;46.220;19.888;2022-07-10T13:50:57;8.82;;;2.05;;
72113;SDS011;59989;46.220;19.888;2022-07-10T13:54:01;6.28;;;1.33;;
72113;SDS011;59989;46.220;19.888;2022-07-10T13:57:04;6.00;;;2.00;;
72113;SDS011;59989;46.220;19.888;2022-07-10T14:00:07;6.22;;;2.30;;
72113;SDS011;59989;46.220;19.888;2022-07-10T14:03:13;9.68;;;1.30;;
72113;SDS011;59989;46.220;19.888;2022-07-10T14:06:16;4.88;;;1.30;;
72113;SDS011;59989;46.220;19.888;2022-07-10T14:09:18;7.75;;;1.35;;
72113;SDS011;59989;46.220;19.888;2022-07-10T14:12:21;6.37;;;1.40;;
72113;SDS011;59989;46.220;19.888;2022-07-10T14:15:23;5.43;;;1.38;;
72113;SDS011;59989;46.220;19.888;2022-07-10T14:18:26;6.72;;;1.52;;
72113;SDS011;59989;46.220;19.888;2022-07-10T14:21:40;5.32;;;1.00;;
72113;SDS011;59989;46.220;19.888;2022-07-10T14:24:43;9.75;;;1.25;;
72113;SDS011;59989;46.220;19.888;2022-07-10T14:27:45;7.13;;;1.50;;
72113;SDS011;59989;46.220;19.888;2022-07-10T14:30:49;23.38;;;1.58;;
72113;SDS011;59989;46.220;19.888;2022-07-10T14:33:52;15.38;;;1.50;;
72113;SDS011;59989;46.220;19.888;2022-07-10T14:36:55;18.27;;;1.60;;
72113;SDS011;59989;46.220;19.888;2022-07-10T14:40:02;26.33;;;3.28;;
72113;SDS011;59989;46.220;19.888;2022-07-10T14:43:05;9.83;;;1.77;;
72113;SDS011;59989;46.220;19.888;2022-07-10T14:46:08;13.63;;;1.55;;
72113;SDS011;59989;46.220;19.888;2022-07-10T14:49:12;17.90;;;2.47;;
72113;SDS011;59989;46.220;19.888;2022-07-10T14:52:15;10.55;;;2.35;;
72113;SDS011;59989;46.220;19.888;2022-07-10T14:55:20;9.70;;;2.45;;
72113;SDS011;59989;46.220;19.888;2022-07-10T14:58:22;10.50;;;1.70;;
72113;SDS011;59989;46.220;19.888;2022-07-10T15:01:25;13.25;;;2.22;;
72113;SDS011;59989;46.220;19.888;2022-07-10T15:04:27;11.02;;;1.40;;
72113;SDS011;59989;46.220;19.888;2022-07-10T15:07:30;8.05;;;1.05;;
72113;SDS011;59989;46.220;19.888;2022-07-10T15:10:33;10.20;;;1.38;;
72113;SDS011;59989;46.220;19.888;2022-07-10T15:13:35;6.90;;;1.17;;
72113;SDS011;59989;46.220;19.888;2022-07-10T15:16:37;5.50;;;1.25;;
72113;SDS011;59989;46.220;19.888;2022-07-10T15:19:40;7.55;;;1.02;;
72113;SDS011;59989;46.220;19.888;2022-07-10T15:22:42;5.45;;;1.70;;
72113;SDS011;59989;46.220;19.888;2022-07-10T15:25:45;8.02;;;2.00;;
72113;SDS011;59989;46.220;19.888;2022-07-10T15:28:47;10.13;;;1.50;;
72113;SDS011;59989;46.220;19.888;2022-07-10T15:31:50;6.32;;;1.50;;
72113;SDS011;59989;46.220;19.888;2022-07-10T15:35:00;7.95;;;2.30;;
72113;SDS011;59989;46.220;19.888;2022-07-10T15:38:03;7.90;;;1.40;;
72113;SDS011;59989;46.220;19.888;2022-07-10T15:41:06;7.78;;;1.60;;
72113;SDS011;59989;46.220;19.888;2022-07-10T15:44:09;9.20;;;1.90;;
72113;SDS011;59989;46.220;19.888;2022-07-10T15:47:11;5.78;;;1.90;;
72113;SDS011;59989;46.220;19.888;2022-07-10T15:50:14;4.07;;;1.15;;
72113;SDS011;59989;46.220;19.888;2022-07-10T15:53:16;6.25;;;1.10;;
72113;SDS011;59989;46.220;19.888;2022-07-10T15:56:19;6.57;;;2.15;;
72113;SDS011;59989;46.220;19.888;2022-07-10T15:59:21;9.33;;;1.43;;
72113;SDS011;59989;46.220;19.888;2022-07-10T16:02:27;10.13;;;1.30;;
72113;SDS011;59989;46.220;19.888;2022-07-10T16:05:30;9.25;;;1.10;;
72113;SDS011;59989;46.220;19.888;2022-07-10T16:08:32;7.75;;;2.10;;
72113;SDS011;59989;46.220;19.888;2022-07-10T16:11:35;6.93;;;1.10;;
72113;SDS011;59989;46.220;19.888;2022-07-10T16:14:37;7.43;;;1.50;;
72113;SDS011;59989;46.220;19.888;2022-07-10T16:17:40;6.80;;;2.05;;
72113;SDS011;59989;46.220;19.888;2022-07-10T16:20:42;6.55;;;1.50;;
72113;SDS011;59989;46.220;19.888;2022-07-10T16:23:45;6.45;;;1.50;;
72113;SDS011;59989;46.220;19.888;2022-07-10T16:26:48;5.25;;;1.40;;
72113;SDS011;59989;46.220;19.888;2022-07-10T16:29:50;14.40;;;1.70;;
72113;SDS011;59989;46.220;19.888;2022-07-10T16:32:53;5.38;;;1.58;;
72113;SDS011;59989;46.220;19.888;2022-07-10T16:36:01;6.97;;;1.70;;
72113;SDS011;59989;46.220;19.888;2022-07-10T16:39:04;9.02;;;1.70;;
72113;SDS011;59989;46.220;19.888;2022-07-10T16:42:06;11.90;;;1.50;;
72113;SDS011;59989;46.220;19.888;2022-07-10T16:45:09;12.57;;;1.70;;
72113;SDS011;59989;46.220;19.888;2022-07-10T16:48:13;6.80;;;1.50;;
72113;SDS011;59989;46.220;19.888;2022-07-10T16:51:15;12.18;;;1.98;;
72113;SDS011;59989;46.220;19.888;2022-07-10T16:54:25;7.93;;;1.80;;
72113;SDS011;59989;46.220;19.888;2022-07-10T16:57:28;11.75;;;1.58;;
72113;SDS011;59989;46.220;19.888;2022-07-10T17:00:31;8.50;;;1.60;;
72113;SDS011;59989;46.220;19.888;2022-07-10T17:03:33;6.00;;;1.60;;
72113;SDS011;59989;46.220;19.888;2022-07-10T17:06:36;5.45;;;1.40;;
72113;SDS011;59989;46.220;19.888;2022-07-10T17:09:38;5.57;;;1.00;;
72113;SDS011;59989;46.220;19.888;2022-07-10T17:12:41;9.90;;;1.20;;
72113;SDS011;59989;46.220;19.888;2022-07-10T17:15:44;7.40;;;1.17;;
72113;SDS011;59989;46.220;19.888;2022-07-10T17:18:47;7.88;;;1.10;;
72113;SDS011;59989;46.220;19.888;2022-07-10T17:21:49;6.18;;;1.10;;
72113;SDS011;59989;46.220;19.888;2022-07-10T17:25:01;7.90;;;1.27;;
72113;SDS011;59989;46.220;19.888;2022-07-10T17:28:04;5.43;;;1.20;;
72113;SDS011;59989;46.220;19.888;2022-07-10T17:31:07;5.67;;;0.90;;
72113;SDS011;59989;46.220;19.888;2022-07-10T17:34:10;6.95;;;1.25;;
72113;SDS011;59989;46.220;19.888;2022-07-10T17:37:12;11.43;;;1.20;;
72113;SDS011;59989;46.220;19.888;2022-07-10T17:40:15;12.75;;;1.33;;
72113;SDS011;59989;46.220;19.888;2022-07-10T17:43:17;9.82;;;1.20;;
72113;SDS011;59989;46.220;19.888;2022-07-10T17:46:20;11.40;;;1.20;;
72113;SDS011;59989;46.220;19.888;2022-07-10T17:49:22;9.90;;;1.08;;
72113;SDS011;59989;46.220;19.888;2022-07-10T17:52:27;12.35;;;1.58;;
72113;SDS011;59989;46.220;19.888;2022-07-10T17:55:30;7.45;;;1.20;;
72113;SDS011;59989;46.220;19.888;2022-07-10T17:58:32;9.20;;;1.50;;
72113;SDS011;59989;46.220;19.888;2022-07-10T18:01:35;9.60;;;1.20;;
72113;SDS011;59989;46.220;19.888;2022-07-10T18:04:38;8.27;;;1.25;;
72113;SDS011;59989;46.220;19.888;2022-07-10T18:07:40;9.15;;;1.30;;
72113;SDS011;59989;46.220;19.888;2022-07-10T18:10:43;6.22;;;0.90;;
72113;SDS011;59989;46.220;19.888;2022-07-10T18:13:46;10.98;;;1.35;;
72113;SDS011;59989;46.220;19.888;2022-07-10T18:16:49;8.93;;;1.43;;
72113;SDS011;59989;46.220;19.888;2022-07-10T18:19:52;10.30;;;1.25;;
72113;SDS011;59989;46.220;19.888;2022-07-10T18:22:54;10.15;;;1.10;;
72113;SDS011;59989;46.220;19.888;2022-07-10T18:25:57;5.45;;;0.85;;
72113;SDS011;59989;46.220;19.888;2022-07-10T18:29:00;7.63;;;1.00;;
72113;SDS011;59989;46.220;19.888;2022-07-10T18:32:02;4.90;;;0.80;;
72113;SDS011;59989;46.220;19.888;2022-07-10T18:35:05;4.43;;;0.90;;
72113;SDS011;59989;46.220;19.888;2022-07-10T18:38:08;7.80;;;1.10;;
72113;SDS011;59989;46.220;19.888;2022-07-10T18:41:10;4.95;;;1.00;;
72113;SDS011;59989;46.220;19.888;2022-07-10T18:44:13;6.10;;;0.98;;
72113;SDS011;59989;46.220;19.888;2022-07-10T18:47:16;6.20;;;0.97;;
72113;SDS011;59989;46.220;19.888;2022-07-10T18:50:18;9.02;;;0.90;;
72113;SDS011;59989;46.220;19.888;2022-07-10T18:53:20;5.43;;;1.13;;